Time;durP1;ratioP1;P1;durP2;ratioP2;P2;SDS_P1;SDS_P2;PMS_P1;PMS_P2;Temp;Humidity;BMP_temperature;BMP_pressure;BME280_temperature;BME280_humidity;BME280_pressure;Samples;Min_cycle;Max_cycle;Signal;HPM_P1;HPM_P2
2023/04/21 00:02:16;;;;;;;4.5;3.9;;;;;;;;;;;;;
2023/04/21 00:04:41;;;;;;;4.8;4.3;;;;;;;;;;;;;
2023/04/21 00:07:07;;;;;;;4.6;4.2;;;;;;;;;;;;;
2023/04/21 00:09:31;;;;;;;5.1;4.3;;;;;;;;;;;;;
2023/04/21 00:11:56;;;;;;;5.7;4.4;;;;;;;;;;;;;
2023/04/21 00:14:22;;;;;;;5.3;4.8;;;;;;;;;;;;;
2023/04/21 00:16:51;;;;;;;5.9;4.8;;;;;;;;;;;;;
2023/04/21 00:19:14;;;;;;;6.6;5.8;;;;;;;;;;;;;
2023/04/21 00:21:38;;;;;;;5.3;4.8;;;;;;;;;;;;;
2023/04/21 00:24:03;;;;;;;6.1;5;;;;;;;;;;;;;
2023/04/21 00:26:28;;;;;;;5.9;5;;;;;;;;;;;;;
2023/04/21 00:28:53;;;;;;;6.7;4.8;;;;;;;;;;;;;
2023/04/21 00:31:18;;;;;;;5.9;5.1;;;;;;;;;;;;;
2023/04/21 00:33:43;;;;;;;6.9;5.5;;;;;;;;;;;;;
2023/04/21 00:36:09;;;;;;;6.1;5.5;;;;;;;;;;;;;
2023/04/21 00:38:35;;;;;;;6.7;5.8;;;;;;;;;;;;;
2023/04/21 00:41:00;;;;;;;7.1;6;;;;;;;;;;;;;
2023/04/21 00:43:26;;;;;;;7.1;5.8;;;;;;;;;;;;;
2023/04/21 00:45:50;;;;;;;8;5.9;;;;;;;;;;;;;
2023/04/21 00:48:15;;;;;;;7.7;5.8;;;;;;;;;;;;;
2023/04/21 00:50:40;;;;;;;6.4;5.8;;;;;;;;;;;;;
2023/04/21 00:53:05;;;;;;;7.7;6.3;;;;;;;;;;;;;
2023/04/21 00:55:31;;;;;;;7.5;6.4;;;;;;;;;;;;;
2023/04/21 00:57:56;;;;;;;8.1;6.5;;;;;;;;;;;;;
2023/04/21 01:00:21;;;;;;;6.7;5.9;;;;;;;;;;;;;
2023/04/21 01:02:46;;;;;;;8;6;;;;;;;;;;;;;
2023/04/21 01:05:15;;;;;;;7.2;5.5;;;;;;;;;;;;;
2023/04/21 01:07:38;;;;;;;6.8;5.4;;;;;;;;;;;;;
2023/04/21 01:10:04;;;;;;;6.9;5.2;;;;;;;;;;;;;
2023/04/21 01:12:28;;;;;;;5.8;5.1;;;;;;;;;;;;;
2023/04/21 01:14:53;;;;;;;5.6;5;;;;;;;;;;;;;
2023/04/21 01:17:20;;;;;;;6.3;5.7;;;;;;;;;;;;;
2023/04/21 01:19:45;;;;;;;6.4;5.4;;;;;;;;;;;;;
2023/04/21 01:22:11;;;;;;;7.3;6.3;;;;;;;;;;;;;
2023/04/21 01:24:36;;;;;;;7.9;5.6;;;;;;;;;;;;;
2023/04/21 01:27:02;;;;;;;5.4;4.9;;;;;;;;;;;;;
2023/04/21 01:29:27;;;;;;;5.6;5;;;;;;;;;;;;;
2023/04/21 01:31:53;;;;;;;5.6;5;;;;;;;;;;;;;
2023/04/21 01:34:18;;;;;;;7.4;6.7;;;;;;;;;;;;;
2023/04/21 01:36:46;;;;;;;6.7;5.1;;;;;;;;;;;;;
2023/04/21 01:39:11;;;;;;;5.5;5;;;;;;;;;;;;;
2023/04/21 01:41:36;;;;;;;7;5.7;;;;;;;;;;;;;
2023/04/21 01:44:01;;;;;;;6;5.4;;;;;;;;;;;;;
2023/04/21 01:46:26;;;;;;;6.2;5.6;;;;;;;;;;;;;
2023/04/21 01:48:52;;;;;;;5.9;5.1;;;;;;;;;;;;;
2023/04/21 01:51:18;;;;;;;7;5.9;;;;;;;;;;;;;
2023/04/21 01:53:43;;;;;;;6.5;5.8;;;;;;;;;;;;;
2023/04/21 01:56:10;;;;;;;7.3;6;;;;;;;;;;;;;
2023/04/21 01:58:36;;;;;;;6.2;5.6;;;;;;;;;;;;;
2023/04/21 02:01:01;;;;;;;6.5;5.8;;;;;;;;;;;;;
2023/04/21 02:03:26;;;;;;;5.8;5.2;;;;;;;;;;;;;
2023/04/21 02:05:52;;;;;;;6.4;5.8;;;;;;;;;;;;;
2023/04/21 02:08:17;;;;;;;5.4;4.7;;;;;;;;;;;;;
2023/04/21 02:10:43;;;;;;;5.2;4.7;;;;;;;;;;;;;
2023/04/21 02:13:09;;;;;;;6.3;5;;;;;;;;;;;;;
2023/04/21 02:15:34;;;;;;;4.4;4;;;;;;;;;;;;;
2023/04/21 02:17:59;;;;;;;5.3;4.3;;;;;;;;;;;;;
2023/04/21 02:20:24;;;;;;;6;5.2;;;;;;;;;;;;;
2023/04/21 02:22:51;;;;;;;6;4.8;;;;;;;;;;;;;
2023/04/21 02:25:16;;;;;;;7.6;5.1;;;;;;;;;;;;;
2023/04/21 02:27:42;;;;;;;8.8;7.9;;;;;;;;;;;;;
2023/04/21 02:30:07;;;;;;;7.4;6.7;;;;;;;;;;;;;
2023/04/21 02:32:39;;;;;;;5.7;5.1;;;;;;;;;;;;;
2023/04/21 02:35:05;;;;;;;5;4.5;;;;;;;;;;;;;
2023/04/21 02:37:30;;;;;;;5.5;4.9;;;;;;;;;;;;;
2023/04/21 02:39:56;;;;;;;5.3;4.7;;;;;;;;;;;;;
2023/04/21 02:42:21;;;;;;;5.9;4.7;;;;;;;;;;;;;
2023/04/21 02:44:47;;;;;;;9.2;8.3;;;;;;;;;;;;;
2023/04/21 02:47:12;;;;;;;5.7;5.2;;;;;;;;;;;;;
2023/04/21 02:49:38;;;;;;;5.2;4.7;;;;;;;;;;;;;
2023/04/21 02:52:03;;;;;;;5.1;4.6;;;;;;;;;;;;;
2023/04/21 02:54:28;;;;;;;5;3.8;;;;;;;;;;;;;
2023/04/21 02:56:53;;;;;;;4.7;3.7;;;;;;;;;;;;;
2023/04/21 02:59:18;;;;;;;3.6;3.3;;;;;;;;;;;;;
2023/04/21 03:01:45;;;;;;;3.9;3.4;;;;;;;;;;;;;
2023/04/21 03:04:09;;;;;;;4;3.4;;;;;;;;;;;;;
2023/04/21 03:06:50;;;;;;;8.9;6.3;;;;;;;;;;;;;
2023/04/21 03:09:15;;;;;;;4.5;4.1;;;;;;;;;;;;;
2023/04/21 03:11:41;;;;;;;4.9;4.1;;;;;;;;;;;;;
2023/04/21 03:14:06;;;;;;;5.7;4;;;;;;;;;;;;;
2023/04/21 03:16:31;;;;;;;5.7;5.2;;;;;;;;;;;;;
2023/04/21 03:18:58;;;;;;;4.1;3.7;;;;;;;;;;;;;
2023/04/21 03:21:23;;;;;;;9.5;4.5;;;;;;;;;;;;;
2023/04/21 03:23:49;;;;;;;6;4.7;;;;;;;;;;;;;
2023/04/21 03:26:14;;;;;;;5.3;4.1;;;;;;;;;;;;;
2023/04/21 03:28:40;;;;;;;4.8;3.6;;;;;;;;;;;;;
2023/04/21 03:31:05;;;;;;;3.8;3.4;;;;;;;;;;;;;
2023/04/21 03:33:32;;;;;;;4.3;3.9;;;;;;;;;;;;;
2023/04/21 03:35:57;;;;;;;4;3.6;;;;;;;;;;;;;
2023/04/21 03:38:22;;;;;;;4.9;3.9;;;;;;;;;;;;;
2023/04/21 03:40:47;;;;;;;4.4;4;;;;;;;;;;;;;
2023/04/21 03:43:14;;;;;;;4.6;3.9;;;;;;;;;;;;;
2023/04/21 03:45:39;;;;;;;5;4.5;;;;;;;;;;;;;
2023/04/21 03:48:05;;;;;;;6.8;5.1;;;;;;;;;;;;;
2023/04/21 03:50:30;;;;;;;5.8;4.7;;;;;;;;;;;;;
2023/04/21 03:52:55;;;;;;;4.4;4;;;;;;;;;;;;;
2023/04/21 03:55:20;;;;;;;5.2;4.4;;;;;;;;;;;;;
2023/04/21 03:57:46;;;;;;;5.6;4.8;;;;;;;;;;;;;
2023/04/21 04:02:31;;;;;;;6.9;5.1;;;;;;;5.59;96.6748;932.5761;;;;
2023/04/21 04:04:56;;;;;;;8.7;6.1;;;;;;;5.52;96.7373;932.5519;;;;
2023/04/21 04:07:26;;;;;;;8.3;6.7;;;;;;;5.43;97.22461;932.573;;;;
2023/04/21 04:09:51;;;;;;;7.7;6;;;;;;;5.43;97.7998;932.6306;;;;
2023/04/21 04:12:19;;;;;;;10;7.9;;;;;;;5.46;97.46973;932.6794;;;;
2023/04/21 04:14:44;;;;;;;5.3;4.8;;;;;;;5.45;97.22852;932.5806;;;;
2023/04/21 04:17:12;;;;;;;5.2;4;;;;;;;5.46;96.76758;932.6163;;;;
2023/04/21 04:19:37;;;;;;;3.9;3.5;;;;;;;5.43;96.61523;932.6417;;;;
2023/04/21 04:22:03;;;;;;;4.2;3.8;;;;;;;5.2;97.12598;932.6443;;;;
2023/04/21 04:24:28;;;;;;;5.3;3.7;;;;;;;5.16;98.03125;932.5806;;;;
2023/04/21 04:26:54;;;;;;;4.3;3.9;;;;;;;5.21;98.14258;932.5779;;;;
2023/04/21 04:29:18;;;;;;;5.9;4.2;;;;;;;5.21;98.03027;932.5795;;;;
2023/04/21 04:31:48;;;;;;;5.1;4.2;;;;;;;5.23;98.09277;932.6398;;;;
2023/04/21 04:34:14;;;;;;;5.8;4.4;;;;;;;5.32;97.70703;932.6526;;;;
2023/04/21 04:36:43;;;;;;;5.9;4.3;;;;;;;5.38;97.24805;932.6555;;;;
2023/04/21 04:39:09;;;;;;;6.5;4.7;;;;;;;5.41;97.16406;932.6436;;;;
2023/04/21 04:41:35;;;;;;;5.7;4.4;;;;;;;5.49;97.23926;932.658;;;;
2023/04/21 04:44:00;;;;;;;6.1;5.4;;;;;;;5.63;96.58105;932.6316;;;;
2023/04/21 04:46:27;;;;;;;8.5;7.7;;;;;;;5.72;95.92383;932.6379;;;;
2023/04/21 04:48:52;;;;;;;8.8;7.9;;;;;;;5.85;95.25195;932.6981;;;;
2023/04/21 04:51:19;;;;;;;6.7;4.6;;;;;;;5.79;94.96875;932.7175;;;;
2023/04/21 04:53:44;;;;;;;3.8;3.5;;;;;;;5.64;95.4541;932.7566;;;;
2023/04/21 04:56:10;;;;;;;4.5;3.6;;;;;;;5.6;96.10059;932.7776;;;;
2023/04/21 04:58:35;;;;;;;5.7;3.3;;;;;;;5.59;96.01758;932.7213;;;;
2023/04/21 05:01:01;;;;;;;6.3;3.7;;;;;;;5.54;96.14355;932.7686;;;;
2023/04/21 05:03:26;;;;;;;5;4.2;;;;;;;5.46;96.58984;932.7473;;;;
2023/04/21 05:05:56;;;;;;;4.6;3.9;;;;;;;5.52;96.96094;932.7263;;;;
2023/04/21 05:08:19;;;;;;;4.4;3.6;;;;;;;5.63;96.60352;932.7019;;;;
2023/04/21 05:10:46;;;;;;;5.2;3.6;;;;;;;5.69;95.94043;932.752;;;;
2023/04/21 05:13:11;;;;;;;4.5;3.6;;;;;;;5.76;95.33398;932.7176;;;;
2023/04/21 05:15:40;;;;;;;4.7;3.5;;;;;;;5.76;94.94043;932.7209;;;;
2023/04/21 05:18:09;;;;;;;4.1;2.9;;;;;;;5.71;95.16602;932.6962;;;;
2023/04/21 05:20:34;;;;;;;7.9;3.8;;;;;;;5.73;95.76953;932.7701;;;;
2023/04/21 05:23:01;;;;;;;3.1;2.6;;;;;;;5.78;95.07813;932.7078;;;;
2023/04/21 05:25:26;;;;;;;4.3;3.3;;;;;;;5.77;95.14551;932.7377;;;;
2023/04/21 05:27:52;;;;;;;5.9;3.9;;;;;;;5.85;95.48926;932.7061;;;;
2023/04/21 05:30:17;;;;;;;7.3;5.4;;;;;;;5.96;95.1543;932.7906;;;;
2023/04/21 05:32:45;;;;;;;8.8;5;;;;;;;6.04;94.81055;932.7828;;;;
2023/04/21 05:35:10;;;;;;;6.1;3.6;;;;;;;6.23;94.44336;932.8155;;;;
2023/04/21 05:37:37;;;;;;;15.3;9.8;;;;;;;6.26;93.71484;932.7386;;;;
2023/04/21 05:40:02;;;;;;;6.9;3.8;;;;;;;6.24;93.10254;932.6884;;;;
2023/04/21 05:42:28;;;;;;;11.6;5.3;;;;;;;6.4;94.09863;932.7291;;;;
2023/04/21 05:44:54;;;;;;;4.7;3.6;;;;;;;6.55;92.97656;932.7458;;;;
2023/04/21 05:47:22;;;;;;;3.9;3.5;;;;;;;6.72;92.53906;932.7622;;;;
2023/04/21 05:49:48;;;;;;;5.5;4.5;;;;;;;6.87;92.43457;932.793;;;;
2023/04/21 05:52:37;;;;;;;6.5;5.3;;;;;;;6.92;90.95117;932.7668;;;;
2023/04/21 05:55:05;;;;;;;7.1;4.7;;;;;;;7.53;90.83008;932.7581;;;;
2023/04/21 05:57:30;;;;;;;9.3;4.9;;;;;;;7.66;86.94434;932.7742;;;;
2023/04/21 05:59:58;;;;;;;13.6;6.9;;;;;;;8.01;87.17578;932.757;;;;
2023/04/21 06:02:23;;;;;;;6.4;4;;;;;;;8.15;85.61426;932.6442;;;;
2023/04/21 06:04:50;;;;;;;6.1;4.1;;;;;;;8.15;84.7373;932.6592;;;;
2023/04/21 06:07:16;;;;;;;4.7;2.9;;;;;;;8.14;84.88574;932.603;;;;
2023/04/21 06:09:41;;;;;;;4.1;2.8;;;;;;;8.54;84.93164;932.5659;;;;
2023/04/21 06:12:07;;;;;;;4;2.3;;;;;;;9.84;79.83984;932.6017;;;;
2023/04/21 06:14:32;;;;;;;2.4;2;;;;;;;9.5;78.89941;932.5522;;;;
2023/04/21 06:16:59;;;;;;;4.8;1.9;;;;;;;9.48;79.89844;932.6602;;;;
2023/04/21 06:19:24;;;;;;;3.9;1.9;;;;;;;10.41;78.51855;932.6525;;;;
2023/04/21 06:21:51;;;;;;;4.8;1.8;;;;;;;10.76;74.40137;932.6225;;;;
2023/04/21 06:24:15;;;;;;;4.3;2.4;;;;;;;11.21;74.01953;932.7117;;;;
2023/04/21 06:26:43;;;;;;;3.1;2.1;;;;;;;11.95;70.27637;932.6666;;;;
2023/04/21 06:29:08;;;;;;;3.1;2.4;;;;;;;11.97;69.02051;932.6259;;;;
2023/04/21 06:31:33;;;;;;;4.7;2.7;;;;;;;13.82;64.05566;932.5522;;;;
2023/04/21 06:33:58;;;;;;;2.6;1.9;;;;;;;13.35;62.72266;932.5527;;;;
2023/04/21 06:36:26;;;;;;;5.4;2.6;;;;;;;15.73;59.1709;932.562;;;;
2023/04/21 06:38:50;;;;;;;5.7;2.9;;;;;;;15.66;58.11035;932.524;;;;
2023/04/21 06:41:16;;;;;;;11.2;3.8;;;;;;;14.01;60.57324;932.5242;;;;
2023/04/21 06:43:41;;;;;;;4.7;2.4;;;;;;;14.41;59.53418;932.4849;;;;
2023/04/21 06:46:08;;;;;;;3.5;2.1;;;;;;;13.97;61.93652;932.4384;;;;
2023/04/21 06:48:33;;;;;;;3.2;2.3;;;;;;;14.3;60.70605;932.3975;;;;
2023/04/21 06:51:01;;;;;;;5.6;2;;;;;;;13.96;62.0293;932.4359;;;;
2023/04/21 06:53:26;;;;;;;3.3;1.9;;;;;;;14.22;60.40625;932.4988;;;;
2023/04/21 06:55:52;;;;;;;2.1;1.9;;;;;;;15.08;57.49219;932.4179;;;;
2023/04/21 06:58:18;;;;;;;1.7;1.5;;;;;;;14.07;60.38574;932.4158;;;;
2023/04/21 07:00:43;;;;;;;1.9;1.5;;;;;;;15.09;57.45801;932.3513;;;;
2023/04/21 07:03:08;;;;;;;1.7;1.2;;;;;;;16.32;54.49512;932.2664;;;;
2023/04/21 07:05:35;;;;;;;1;1;;;;;;;18.44;50.69141;932.2327;;;;
2023/04/21 07:08:00;;;;;;;1.2;1;;;;;;;18.99;47.21484;932.2484;;;;
2023/04/21 07:10:27;;;;;;;0.8;0.8;;;;;;;16.5;50.50195;932.2511;;;;
2023/04/21 07:12:52;;;;;;;1;0.9;;;;;;;19.22;47.12305;932.2534;;;;
2023/04/21 07:15:19;;;;;;;0.7;0.7;;;;;;;22.14;40.85742;932.2703;;;;
2023/04/21 07:17:44;;;;;;;2.3;0.9;;;;;;;23.6;38.11035;932.226;;;;
2023/04/21 07:20:12;;;;;;;1.1;1;;;;;;;23.93;35.10156;932.1504;;;;
2023/04/21 07:22:37;;;;;;;2.4;0.8;;;;;;;23.59;34.55762;932.1958;;;;
2023/04/21 07:25:07;;;;;;;0.9;0.7;;;;;;;20.79;40.96875;932.2312;;;;
2023/04/21 07:27:32;;;;;;;0.9;0.9;;;;;;;22.64;38.29883;932.2205;;;;
2023/04/21 07:30:00;;;;;;;0.7;0.7;;;;;;;20.99;38.65918;932.2026;;;;
2023/04/21 07:32:25;;;;;;;0.8;0.8;;;;;;;22.75;38.93066;932.2153;;;;
2023/04/21 07:34:53;;;;;;;1;0.8;;;;;;;23.68;37.4707;932.2503;;;;
2023/04/21 07:37:18;;;;;;;0.8;0.7;;;;;;;23.44;35.0166;932.1883;;;;
2023/04/21 07:39:47;;;;;;;0.6;0.6;;;;;;;24.42;35.50586;932.117;;;;
2023/04/21 07:42:12;;;;;;;0.8;0.7;;;;;;;26.42;31.59277;932.1403;;;;
2023/04/21 07:44:37;;;;;;;0.8;0.8;;;;;;;24.8;32.76367;932.1362;;;;
2023/04/21 07:47:02;;;;;;;0.6;0.5;;;;;;;23.79;35.53809;932.1116;;;;
2023/04/21 07:49:28;;;;;;;0.7;0.7;;;;;;;21.27;39.41992;932.0472;;;;
2023/04/21 07:51:53;;;;;;;0.6;0.6;;;;;;;20.63;40.35645;932.1145;;;;
2023/04/21 07:54:20;;;;;;;0.8;0.7;;;;;;;23.76;35.19336;932.0623;;;;
2023/04/21 07:56:46;;;;;;;1.3;0.8;;;;;;;25.68;33.63184;932.0344;;;;
2023/04/21 07:59:13;;;;;;;0.7;0.7;;;;;;;26.26;32.25586;932.0262;;;;
2023/04/21 08:01:38;;;;;;;1;0.9;;;;;;;27.93;30.42871;931.9902;;;;
2023/04/21 08:04:03;;;;;;;1.1;0.7;;;;;;;27.82;29.99316;932.0541;;;;
2023/04/21 08:06:34;;;;;;;1.7;1.3;;;;;;;27.03;31.93164;932.0475;;;;
2023/04/21 08:09:03;;;;;;;1.1;1;;;;;;;26.44;32.84961;932.0737;;;;
2023/04/21 08:11:28;;;;;;;1.5;1.3;;;;;;;26.36;32.74902;932.0367;;;;
2023/04/21 08:13:57;;;;;;;1.1;1;;;;;;;24.66;36.07813;932.0544;;;;
2023/04/21 08:16:21;;;;;;;1.6;1.1;;;;;;;25.45;34.54785;931.9673;;;;
2023/04/21 08:18:47;;;;;;;1.2;1.1;;;;;;;26.03;34.10742;931.9191;;;;
2023/04/21 08:21:12;;;;;;;1.2;1.1;;;;;;;27.16;32.02441;932.0023;;;;
2023/04/21 08:23:41;;;;;;;1.1;1.1;;;;;;;27.94;30.38184;932.0074;;;;
2023/04/21 08:26:06;;;;;;;1.1;1;;;;;;;28.96;29.15234;931.9213;;;;
2023/04/21 08:28:31;;;;;;;1.1;1;;;;;;;29.06;29.00391;931.9185;;;;
2023/04/21 08:30:59;;;;;;;1.1;0.8;;;;;;;29.26;28.54102;931.8957;;;;
2023/04/21 08:33:23;;;;;;;1.2;1.1;;;;;;;28.94;29.31836;931.8994;;;;
2023/04/21 08:35:50;;;;;;;1.2;1.1;;;;;;;29.02;29.63281;931.8315;;;;
2023/04/21 08:38:15;;;;;;;1.3;1.2;;;;;;;28.49;30.88281;931.8645;;;;
2023/04/21 08:40:48;;;;;;;1;1;;;;;;;27.91;30.17773;931.837;;;;
2023/04/21 08:43:15;;;;;;;1.2;1;;;;;;;27.61;30.50098;931.8322;;;;
2023/04/21 08:45:40;;;;;;;1.1;1.1;;;;;;;27.43;31.05859;931.7946;;;;
2023/04/21 08:48:08;;;;;;;2.2;1;;;;;;;26.7;31.90918;931.7661;;;;
2023/04/21 08:50:31;;;;;;;0.8;0.8;;;;;;;26.89;33.0127;931.7583;;;;
2023/04/21 08:52:58;;;;;;;1.1;1;;;;;;;27.49;31.76367;931.7169;;;;
2023/04/21 08:55:23;;;;;;;1.1;1;;;;;;;27.82;31.24023;931.6559;;;;
2023/04/21 08:57:49;;;;;;;1.6;1.1;;;;;;;27.59;30.90332;931.5867;;;;
2023/04/21 09:00:20;;;;;;;1.9;1;;;;;;;27.59;30.39453;931.6365;;;;
2023/04/21 09:02:52;;;;;;;1.5;1;;;;;;;28.65;29.33496;931.5901;;;;
2023/04/21 09:05:22;;;;;;;0.9;0.8;;;;;;;26.44;33.2041;931.6152;;;;
2023/04/21 09:07:51;;;;;;;0.6;0.6;;;;;;;27.65;30.31445;931.5754;;;;
2023/04/21 09:10:21;;;;;;;0.8;0.8;;;;;;;27.64;31.50098;931.5839;;;;
2023/04/21 09:12:50;;;;;;;1.3;0.9;;;;;;;25.51;32.68652;931.5764;;;;
2023/04/21 09:15:19;;;;;;;1.2;0.9;;;;;;;25.59;34.47559;931.4796;;;;
2023/04/21 09:17:51;;;;;;;1.2;0.9;;;;;;;25.47;33.65137;931.5151;;;;
2023/04/21 09:20:16;;;;;;;0.9;0.9;;;;;;;24.74;35.17676;931.5477;;;;
2023/04/21 09:22:44;;;;;;;0.8;0.8;;;;;;;25.18;34.72754;931.5322;;;;
2023/04/21 09:25:14;;;;;;;0.8;0.8;;;;;;;25.76;33.59082;931.519;;;;
2023/04/21 09:27:39;;;;;;;0.7;0.7;;;;;;;24.93;34.49609;931.5162;;;;
2023/04/21 09:30:07;;;;;;;0.9;0.8;;;;;;;24.29;36.35449;931.5245;;;;
2023/04/21 09:32:34;;;;;;;0.8;0.8;;;;;;;23.99;37.14258;931.543;;;;
2023/04/21 09:35:02;;;;;;;0.9;0.9;;;;;;;23.78;37.41992;931.5247;;;;
2023/04/21 09:37:31;;;;;;;1;0.9;;;;;;;23.61;38.60645;931.463;;;;
2023/04/21 09:40:00;;;;;;;1;0.9;;;;;;;23.4;39.16211;931.5614;;;;
2023/04/21 09:42:34;;;;;;;1.2;1;;;;;;;23.56;40.40039;931.5111;;;;
2023/04/21 09:45:00;;;;;;;1.8;0.8;;;;;;;23.67;38.38672;931.5069;;;;
2023/04/21 09:47:26;;;;;;;1.3;0.9;;;;;;;23.85;38.42578;931.5203;;;;
2023/04/21 09:49:52;;;;;;;1;0.9;;;;;;;24.31;38.7373;931.4997;;;;
2023/04/21 09:52:27;;;;;;;0.8;0.8;;;;;;;23.98;38.79004;931.5367;;;;
2023/04/21 09:54:57;;;;;;;1.2;1;;;;;;;23.75;39.51074;931.4255;;;;
2023/04/21 09:57:23;;;;;;;1.6;0.8;;;;;;;23.67;39.50488;931.4662;;;;
2023/04/21 09:59:47;;;;;;;0.9;0.8;;;;;;;23.28;42.33887;931.4662;;;;
2023/04/21 10:02:15;;;;;;;0.8;0.8;;;;;;;22.77;40.34082;931.4167;;;;
2023/04/21 10:04:40;;;;;;;1.2;1;;;;;;;22.49;42.02832;931.416;;;;
2023/04/21 10:07:10;;;;;;;1;0.9;;;;;;;21.99;42.14551;931.4411;;;;
2023/04/21 10:09:43;;;;;;;1.7;0.8;;;;;;;23.06;41.04785;931.3481;;;;
2023/04/21 10:12:08;;;;;;;0.8;0.8;;;;;;;23.74;38.75781;931.3265;;;;
2023/04/21 10:14:35;;;;;;;0.8;0.8;;;;;;;23.4;39.96191;931.2874;;;;
2023/04/21 10:17:08;;;;;;;0.8;0.8;;;;;;;23;42.03027;931.2808;;;;
2023/04/21 10:19:37;;;;;;;1.7;1;;;;;;;23.71;39.38965;931.1594;;;;
2023/04/21 10:22:02;;;;;;;1;0.9;;;;;;;22.55;43.81738;931.2661;;;;
2023/04/21 10:24:30;;;;;;;1;0.9;;;;;;;22.87;43.64941;931.1981;;;;
2023/04/21 10:26:55;;;;;;;1;0.9;;;;;;;22.91;41.92773;931.1888;;;;
2023/04/21 10:29:21;;;;;;;0.7;0.7;;;;;;;23.63;40.41797;931.0846;;;;
2023/04/21 10:31:46;;;;;;;0.8;0.8;;;;;;;23.7;40.0957;931.1696;;;;
2023/04/21 10:34:11;;;;;;;1;0.8;;;;;;;23.65;39.57422;931.1509;;;;
2023/04/21 10:36:36;;;;;;;0.9;0.8;;;;;;;24.48;38.91699;931.1512;;;;
2023/04/21 10:39:04;;;;;;;0.7;0.7;;;;;;;24.79;36.53809;931.192;;;;
2023/04/21 10:41:35;;;;;;;0.8;0.8;;;;;;;25.1;37.29492;931.1836;;;;
2023/04/21 10:44:05;;;;;;;1;0.9;;;;;;;25.7;36.42285;931.158;;;;
2023/04/21 10:46:29;;;;;;;0.8;0.8;;;;;;;26.02;34.10742;931.1844;;;;
2023/04/21 10:48:58;;;;;;;0.7;0.7;;;;;;;25.94;34.83496;931.212;;;;
2023/04/21 10:51:24;;;;;;;1;0.8;;;;;;;26.89;33.21387;931.2062;;;;
2023/04/21 10:53:52;;;;;;;0.7;0.7;;;;;;;26.9;32.38477;931.2036;;;;
2023/04/21 10:56:19;;;;;;;0.7;0.7;;;;;;;27.08;33.38184;931.2164;;;;
2023/04/21 10:58:44;;;;;;;2;0.9;;;;;;;26.98;33.71777;931.1348;;;;
2023/04/21 11:01:16;;;;;;;1.3;0.7;;;;;;;27.59;32.8623;931.1749;;;;
2023/04/21 11:03:40;;;;;;;1;0.8;;;;;;;28.27;30.75977;931.1033;;;;
2023/04/21 11:06:05;;;;;;;0.8;0.8;;;;;;;28.73;31.16016;931.1052;;;;
2023/04/21 11:08:35;;;;;;;0.8;0.8;;;;;;;29.39;28.97754;931.0617;;;;
2023/04/21 11:11:06;;;;;;;2.4;0.7;;;;;;;28.71;29.73145;931.0591;;;;
2023/04/21 11:13:34;;;;;;;1.2;0.8;;;;;;;28.44;31.30664;930.9956;;;;
2023/04/21 11:16:01;;;;;;;1;0.9;;;;;;;27.74;31.95898;931.0953;;;;
2023/04/21 11:18:26;;;;;;;0.8;0.8;;;;;;;27.78;31.46289;931.0542;;;;
2023/04/21 11:20:57;;;;;;;1.2;0.7;;;;;;;27.96;31.36914;931.0903;;;;
2023/04/21 11:23:25;;;;;;;1.4;0.8;;;;;;;27.63;32.2002;931.0294;;;;
2023/04/21 11:25:50;;;;;;;0.9;0.9;;;;;;;28.53;29.92188;931.0552;;;;
2023/04/21 11:28:19;;;;;;;0.7;0.7;;;;;;;28.51;30.36035;931.0288;;;;
2023/04/21 11:30:44;;;;;;;0.8;0.7;;;;;;;28.07;31.42383;931.0386;;;;
2023/04/21 11:33:13;;;;;;;0.9;0.7;;;;;;;28.24;30.78125;931.0117;;;;
2023/04/21 11:35:38;;;;;;;0.7;0.7;;;;;;;27.8;31.3457;931.0211;;;;
2023/04/21 11:38:03;;;;;;;0.7;0.6;;;;;;;26.99;32.35547;931.0411;;;;
2023/04/21 11:40:29;;;;;;;0.8;0.8;;;;;;;26.55;33.69824;931.0055;;;;
2023/04/21 11:43:02;;;;;;;0.8;0.8;;;;;;;27.08;33.10938;931.0242;;;;
2023/04/21 11:45:27;;;;;;;0.9;0.9;;;;;;;27.28;32.86328;931.0054;;;;
2023/04/21 11:47:55;;;;;;;1;0.9;;;;;;;27.48;33.16211;930.9465;;;;
2023/04/21 11:50:24;;;;;;;1;1;;;;;;;27.79;33.32715;930.9672;;;;
2023/04/21 11:52:52;;;;;;;0.8;0.8;;;;;;;27.28;32.59082;931.06;;;;
2023/04/21 11:55:16;;;;;;;1.1;0.9;;;;;;;27.47;33.01953;931.0094;;;;
2023/04/21 11:57:39;;;;;;;1.3;0.9;;;;;;;27.4;32.10059;930.9838;;;;
2023/04/21 12:00:07;;;;;;;0.9;0.9;;;;;;;26.34;34.15527;931.0475;;;;
2023/04/21 12:02:34;;;;;;;0.8;0.8;;;;;;;25.28;35.72754;930.9857;;;;
2023/04/21 12:04:59;;;;;;;0.8;0.8;;;;;;;23.64;38.40723;931.0214;;;;
2023/04/21 12:07:27;;;;;;;1.2;0.9;;;;;;;23.15;38.64746;930.9863;;;;
2023/04/21 12:09:52;;;;;;;1;0.9;;;;;;;22.57;40.04102;931.0891;;;;
2023/04/21 12:12:21;;;;;;;0.9;0.8;;;;;;;23.14;38.92871;930.9396;;;;
2023/04/21 12:14:49;;;;;;;2;1.1;;;;;;;24.46;38.76172;930.9938;;;;
2023/04/21 12:17:19;;;;;;;0.8;0.8;;;;;;;25.49;34.63379;930.9146;;;;
2023/04/21 12:19:48;;;;;;;0.8;0.8;;;;;;;26.1;34.26758;930.9192;;;;
2023/04/21 12:22:17;;;;;;;0.8;0.7;;;;;;;26.28;33.72461;930.9253;;;;
2023/04/21 12:24:41;;;;;;;0.8;0.8;;;;;;;26.59;32.71777;930.9653;;;;
2023/04/21 12:27:07;;;;;;;1;0.9;;;;;;;25.9;34.15723;930.9485;;;;
2023/04/21 12:29:34;;;;;;;1.6;0.9;;;;;;;26.33;34.18945;930.8675;;;;
2023/04/21 12:32:02;;;;;;;1.4;0.8;;;;;;;26.3;35.24121;930.8976;;;;
2023/04/21 12:34:28;;;;;;;1.5;0.6;;;;;;;26.58;30.28906;930.8806;;;;
2023/04/21 12:37:00;;;;;;;2.8;0.8;;;;;;;26.92;32.30273;930.8653;;;;
2023/04/21 12:39:30;;;;;;;1.5;0.9;;;;;;;26.71;34.30176;930.8851;;;;
2023/04/21 12:41:56;;;;;;;1.2;0.9;;;;;;;25.51;34.70703;930.8322;;;;
2023/04/21 12:44:26;;;;;;;0.8;0.7;;;;;;;24.82;33.99219;930.8394;;;;
2023/04/21 12:46:51;;;;;;;0.6;0.6;;;;;;;25.12;32.16211;930.8536;;;;
2023/04/21 12:49:19;;;;;;;0.7;0.7;;;;;;;25.3;31.27832;930.8195;;;;
2023/04/21 12:51:45;;;;;;;0.4;0.4;;;;;;;25.23;30.24609;930.7997;;;;
2023/04/21 12:54:09;;;;;;;1.3;0.8;;;;;;;25.23;32.18164;930.7736;;;;
2023/04/21 12:56:41;;;;;;;2.1;0.7;;;;;;;25.08;30.27051;930.7626;;;;
2023/04/21 12:59:12;;;;;;;0.6;0.6;;;;;;;25.11;32.27832;930.7169;;;;
2023/04/21 13:01:44;;;;;;;0.6;0.6;;;;;;;24.63;34.73242;930.6987;;;;
2023/04/21 13:04:08;;;;;;;2.3;0.8;;;;;;;24.38;34.46582;930.6722;;;;
2023/04/21 13:06:37;;;;;;;0.7;0.7;;;;;;;24.19;34.50977;930.6553;;;;
2023/04/21 13:09:02;;;;;;;1.4;0.8;;;;;;;23.95;36.7041;930.675;;;;
2023/04/21 13:11:29;;;;;;;0.9;0.6;;;;;;;24.08;37.68066;930.6397;;;;
2023/04/21 13:13:54;;;;;;;0.6;0.6;;;;;;;24.24;37.3877;930.6353;;;;
2023/04/21 13:16:19;;;;;;;0.7;0.7;;;;;;;24.46;34.77832;930.6672;;;;
2023/04/21 13:18:49;;;;;;;0.8;0.6;;;;;;;24.58;35.63672;930.6044;;;;
2023/04/21 13:21:14;;;;;;;0.6;0.6;;;;;;;24.59;36.33301;930.6269;;;;
2023/04/21 13:23:41;;;;;;;0.6;0.6;;;;;;;24.36;32.7666;930.6859;;;;
2023/04/21 13:26:06;;;;;;;1;0.7;;;;;;;23.84;37.75488;930.6052;;;;
2023/04/21 13:28:31;;;;;;;1.7;1.1;;;;;;;23.31;38.69727;930.6401;;;;
2023/04/21 13:31:00;;;;;;;0.6;0.6;;;;;;;23.2;38.24023;930.6588;;;;
2023/04/21 13:33:26;;;;;;;0.6;0.6;;;;;;;22.63;39.75293;930.5851;;;;
2023/04/21 13:35:56;;;;;;;0.5;0.5;;;;;;;23.04;36.54688;930.6116;;;;
2023/04/21 13:38:24;;;;;;;0.6;0.6;;;;;;;22.79;41.16406;930.6761;;;;
2023/04/21 13:40:50;;;;;;;0.7;0.7;;;;;;;22.37;41.30176;930.6294;;;;
2023/04/21 13:43:18;;;;;;;0.9;0.8;;;;;;;22.07;41.10938;930.7358;;;;
2023/04/21 13:45:44;;;;;;;1.1;0.9;;;;;;;21.96;42.31738;930.6564;;;;
2023/04/21 13:48:11;;;;;;;0.9;0.8;;;;;;;21.55;42.98145;930.7051;;;;
2023/04/21 13:50:36;;;;;;;0.8;0.7;;;;;;;21.63;42.08887;930.7042;;;;
2023/04/21 13:53:03;;;;;;;0.8;0.8;;;;;;;21.72;42.61133;930.6264;;;;
2023/04/21 13:55:28;;;;;;;0.8;0.7;;;;;;;21.77;41.76074;930.6495;;;;
2023/04/21 13:57:56;;;;;;;0.9;0.7;;;;;;;21.76;43.03711;930.605;;;;
2023/04/21 14:00:21;;;;;;;0.8;0.8;;;;;;;21.73;41.93262;930.5995;;;;
2023/04/21 14:02:50;;;;;;;0.8;0.8;;;;;;;21.69;40.79395;930.5604;;;;
2023/04/21 14:05:17;;;;;;;0.9;0.8;;;;;;;21.55;43.27441;930.6298;;;;
2023/04/21 14:07:42;;;;;;;1;0.9;;;;;;;21.58;43.4873;930.5314;;;;
2023/04/21 14:10:10;;;;;;;2.7;0.8;;;;;;;21.75;43.23535;930.5076;;;;
2023/04/21 14:12:35;;;;;;;1.1;0.8;;;;;;;21.99;44.23145;930.4771;;;;
2023/04/21 14:15:03;;;;;;;0.9;0.8;;;;;;;21.68;44.96191;930.5115;;;;
2023/04/21 14:17:33;;;;;;;1;0.7;;;;;;;21.7;44.81055;930.4622;;;;
2023/04/21 14:19:59;;;;;;;0.9;0.9;;;;;;;21.43;46.45703;930.4411;;;;
2023/04/21 14:22:24;;;;;;;1.1;0.7;;;;;;;21.59;43.94531;930.3876;;;;
2023/04/21 14:24:55;;;;;;;3.2;0.9;;;;;;;21.6;42.54102;930.2932;;;;
2023/04/21 14:27:20;;;;;;;0.8;0.8;;;;;;;20.93;45.26074;930.3505;;;;
2023/04/21 14:29:47;;;;;;;2.9;0.9;;;;;;;21.12;42.6582;930.3452;;;;
2023/04/21 14:32:12;;;;;;;1.1;0.7;;;;;;;21.08;41.18164;930.3251;;;;
2023/04/21 14:34:40;;;;;;;0.6;0.6;;;;;;;21.05;40.76855;930.3411;;;;
2023/04/21 14:37:05;;;;;;;0.6;0.6;;;;;;;21.15;41.16504;930.3381;;;;
2023/04/21 14:39:32;;;;;;;0.9;0.7;;;;;;;21.3;41.62402;930.3208;;;;
2023/04/21 14:41:57;;;;;;;1;0.9;;;;;;;21.27;41.64355;930.3066;;;;
2023/04/21 14:44:25;;;;;;;0.8;0.8;;;;;;;21.18;42.27832;930.2833;;;;
2023/04/21 14:46:50;;;;;;;1.1;1;;;;;;;21.1;42.29492;930.2503;;;;
2023/04/21 14:49:16;;;;;;;3;0.8;;;;;;;20.97;42.18848;930.1961;;;;
2023/04/21 14:51:41;;;;;;;0.7;0.7;;;;;;;20.82;42.60645;930.1934;;;;
2023/04/21 14:54:09;;;;;;;0.8;0.8;;;;;;;20.93;41.55371;930.1822;;;;
2023/04/21 14:56:34;;;;;;;0.6;0.6;;;;;;;20.62;44.5625;930.1683;;;;
2023/04/21 14:59:03;;;;;;;1;0.7;;;;;;;20.45;43.91504;930.1364;;;;
2023/04/21 15:01:27;;;;;;;0.9;0.9;;;;;;;20.46;44.05469;930.0909;;;;
2023/04/21 15:03:56;;;;;;;0.7;0.7;;;;;;;20.62;43.01953;930.1481;;;;
2023/04/21 15:06:20;;;;;;;1.3;1;;;;;;;20.81;42.34863;930.1719;;;;
2023/04/21 15:08:46;;;;;;;0.7;0.7;;;;;;;20.69;43.28418;930.1947;;;;
2023/04/21 15:11:11;;;;;;;0.5;0.5;;;;;;;20.56;40.88867;930.2151;;;;
2023/04/21 15:13:40;;;;;;;0.6;0.6;;;;;;;20.72;42.16504;930.171;;;;
2023/04/21 15:16:06;;;;;;;1.2;0.6;;;;;;;20.8;42.83887;930.1358;;;;
2023/04/21 15:18:31;;;;;;;0.7;0.7;;;;;;;20.8;42.26563;930.0986;;;;
2023/04/21 15:20:56;;;;;;;1.9;0.6;;;;;;;20.63;42.64648;930.1373;;;;
2023/04/21 15:23:21;;;;;;;0.7;0.7;;;;;;;20.63;41.67676;930.1228;;;;
2023/04/21 15:25:49;;;;;;;0.6;0.5;;;;;;;20.55;41.31934;930.0873;;;;
2023/04/21 15:28:14;;;;;;;0.5;0.5;;;;;;;20.56;41.19238;930.055;;;;
2023/04/21 15:30:46;;;;;;;0.9;0.6;;;;;;;20.54;40.61816;929.9977;;;;
2023/04/21 15:33:16;;;;;;;1.6;0.7;;;;;;;20.38;41.41992;930.0186;;;;
2023/04/21 15:35:39;;;;;;;1;0.8;;;;;;;20.35;40.78711;930.0276;;;;
2023/04/21 15:38:05;;;;;;;0.7;0.6;;;;;;;20.4;40.42871;930.0234;;;;
2023/04/21 15:40:38;;;;;;;0.7;0.7;;;;;;;20.53;40.24219;930.0206;;;;